Harleston, Mississippi
Current Conditions -  °F | °C
As of 11:56 AM on Monday 24 Nov 2014 (Local Time) from KMOB Reporting Station
Scattered Clouds Scattered Clouds  
Wind Chill: 76°   Ceiling: Unl
Heat Index: 76°   Visibility: 10mi
Dew Point: 57°   Wind: 7mph
Humidity: 52%   Direction: 290°WNW
Pressure: 29.84"   Gusts: NA
Location:  30.8443°N, 88.5703°W
Report Text: KMOB 241756Z 29006KT 10SM FEW090 SCT250 24/14 A2984 RMK AO2 SLP101 T02440139 10244 20189 58006
Loading
Personal Weather Stations






























Interactive Weather Map New forecast layout! Learn more

10-Day Weather Forecast

Advertisements
Track Severe Weather on mobile